createdAt,value
2023-08-14T00:00:08.930Z,3.80
2023-08-14T00:02:45.955Z,3.75
2023-08-14T00:05:15.798Z,3.85
2023-08-14T00:07:45.603Z,3.83
2023-08-14T00:10:15.614Z,4.30
2023-08-14T00:12:45.388Z,4.60
2023-08-14T00:15:15.428Z,3.95
2023-08-14T00:17:48.028Z,4.78
2023-08-14T00:20:17.847Z,4.05
2023-08-14T00:22:47.623Z,4.15
2023-08-14T00:25:17.591Z,3.80
2023-08-14T00:27:47.366Z,3.83
2023-08-14T00:30:17.268Z,4.00
2023-08-14T00:32:49.839Z,4.20
2023-08-14T00:35:19.880Z,3.63
2023-08-14T00:37:51.175Z,4.10
2023-08-14T00:40:21.169Z,3.88
2023-08-14T00:42:51.099Z,4.03
2023-08-14T00:45:22.231Z,4.00
2023-08-14T00:47:55.342Z,3.90
2023-08-14T00:50:25.295Z,4.03
2023-08-14T00:52:58.175Z,3.92
2023-08-14T00:55:29.458Z,4.47
2023-08-14T00:57:59.591Z,4.07
2023-08-14T01:00:29.936Z,4.10
2023-08-14T01:03:02.585Z,3.58
2023-08-14T01:05:32.580Z,4.32
2023-08-14T01:08:02.568Z,4.40
2023-08-14T01:10:42.863Z,4.00
2023-08-14T01:13:25.242Z,3.80
2023-08-14T01:15:57.802Z,3.80
2023-08-14T01:18:31.720Z,3.70
2023-08-14T01:21:14.946Z,3.97
2023-08-14T01:23:53.756Z,4.07
2023-08-14T01:26:26.628Z,4.03
2023-08-14T01:28:57.682Z,3.85
2023-08-14T01:31:27.594Z,3.70
2023-08-14T01:33:57.756Z,3.80
2023-08-14T01:36:31.818Z,4.20
2023-08-14T01:39:08.455Z,3.90
2023-08-14T01:41:45.568Z,4.43
2023-08-14T01:44:18.142Z,3.90
2023-08-14T01:46:48.013Z,4.05
2023-08-14T01:49:18.829Z,3.83
2023-08-14T01:51:50.476Z,4.00
2023-08-14T01:54:20.613Z,3.90
2023-08-14T01:56:53.024Z,4.15
2023-08-14T01:59:28.568Z,3.92
2023-08-14T02:01:58.446Z,3.90
2023-08-14T02:04:28.241Z,3.97
2023-08-14T02:06:58.016Z,4.28
2023-08-14T02:09:27.815Z,4.20
2023-08-14T02:12:00.347Z,4.18
2023-08-14T02:14:30.142Z,3.78
2023-08-14T02:17:00.039Z,3.90
2023-08-14T02:19:29.821Z,3.95
2023-08-14T02:21:59.626Z,4.28
2023-08-14T02:24:29.382Z,4.03
2023-08-14T02:27:01.805Z,4.10
2023-08-14T02:29:31.823Z,4.60
2023-08-14T02:32:01.654Z,4.30
2023-08-14T02:34:36.607Z,4.05
2023-08-14T02:37:06.428Z,4.25
2023-08-14T02:39:36.205Z,4.28
2023-08-14T02:42:08.949Z,4.90
2023-08-14T02:44:39.272Z,4.18
2023-08-14T02:47:09.781Z,4.50
2023-08-14T02:49:39.815Z,4.80
2023-08-14T02:52:09.872Z,4.65
2023-08-14T02:54:39.816Z,4.35
2023-08-14T02:57:12.355Z,4.10
2023-08-14T02:59:42.227Z,5.95
2023-08-14T03:02:12.213Z,4.32
2023-08-14T03:04:43.335Z,4.50
2023-08-14T03:07:13.180Z,4.90
2023-08-14T03:09:42.938Z,5.13
2023-08-14T03:12:15.566Z,4.85
2023-08-14T03:14:45.830Z,4.75
2023-08-14T03:17:15.784Z,3.95
2023-08-14T03:19:45.594Z,4.45
2023-08-14T03:22:15.878Z,4.45
2023-08-14T03:24:46.307Z,5.15
2023-08-14T03:27:18.760Z,5.22
2023-08-14T03:29:48.732Z,4.95
2023-08-14T03:32:19.002Z,4.47
2023-08-14T03:34:49.253Z,4.90
2023-08-14T03:37:19.163Z,5.05
2023-08-14T03:39:50.092Z,4.97
2023-08-14T03:42:22.803Z,5.25
2023-08-14T03:44:52.741Z,5.03
2023-08-14T03:47:22.531Z,5.47
2023-08-14T03:49:52.312Z,5.20
2023-08-14T03:52:22.094Z,5.65
2023-08-14T03:54:51.903Z,5.93
2023-08-14T03:57:25.814Z,5.22
2023-08-14T04:02:25.735Z,5.28
2023-08-14T04:04:55.828Z,4.97
2023-08-14T04:07:25.659Z,5.28
2023-08-14T04:09:55.439Z,5.55
2023-08-14T04:12:27.866Z,5.28
2023-08-14T04:14:57.705Z,6.53
2023-08-14T04:17:27.498Z,5.90
2023-08-14T04:19:57.330Z,5.45
2023-08-14T04:22:27.207Z,4.90
2023-08-14T04:24:56.980Z,5.40
2023-08-14T04:27:29.362Z,4.97
2023-08-14T04:29:59.197Z,4.78
2023-08-14T04:32:29.552Z,5.25
2023-08-14T04:34:59.430Z,4.63
2023-08-14T04:37:29.493Z,4.93
2023-08-14T04:39:59.497Z,4.75
2023-08-14T04:42:32.526Z,5.00
2023-08-14T04:45:02.339Z,4.70
2023-08-14T04:47:32.612Z,5.25
2023-08-14T04:50:03.626Z,5.15
2023-08-14T04:52:33.423Z,4.70
2023-08-14T04:55:03.279Z,5.28
2023-08-14T04:57:39.986Z,4.78
2023-08-14T05:00:13.034Z,5.20
2023-08-14T05:02:43.938Z,5.82
2023-08-14T05:05:14.048Z,5.35
2023-08-14T05:07:43.848Z,5.05
2023-08-14T05:10:13.726Z,6.25
2023-08-14T05:12:48.471Z,5.75
2023-08-14T05:15:18.570Z,6.72
2023-08-14T05:17:48.421Z,6.75
2023-08-14T05:20:18.544Z,8.15
2023-08-14T05:22:48.698Z,7.93
2023-08-14T05:25:18.550Z,5.28
2023-08-14T05:27:51.136Z,5.00
2023-08-14T05:30:21.110Z,5.03
2023-08-14T05:32:50.946Z,4.60
2023-08-14T05:35:24.870Z,6.00
2023-08-14T05:40:27.106Z,4.60
2023-08-14T05:43:09.792Z,6.18
2023-08-14T05:45:40.936Z,5.45
2023-08-14T05:48:11.206Z,4.40
2023-08-14T05:50:41.221Z,4.30
2023-08-14T05:53:11.308Z,4.55
2023-08-14T05:55:42.902Z,4.28
2023-08-14T05:58:15.277Z,3.80
2023-08-14T06:00:45.189Z,4.80
2023-08-14T06:03:20.248Z,4.05
2023-08-14T06:05:55.580Z,3.75
2023-08-14T06:08:25.331Z,3.67
2023-08-14T06:10:55.240Z,3.80
2023-08-14T06:13:27.678Z,5.22
2023-08-14T06:15:57.465Z,3.63
2023-08-14T06:18:27.742Z,3.70
2023-08-14T06:20:59.798Z,3.20
2023-08-14T06:23:29.629Z,3.30
2023-08-14T06:26:00.637Z,3.85
2023-08-14T06:28:33.118Z,3.38
2023-08-14T06:31:05.002Z,3.42
2023-08-14T06:33:36.568Z,3.35
2023-08-14T06:38:40.027Z,3.38
2023-08-14T06:41:10.434Z,3.10
2023-08-14T06:43:44.054Z,3.08
2023-08-14T06:46:13.904Z,4.20
2023-08-14T06:48:43.715Z,3.03
2023-08-14T06:51:13.543Z,2.85
2023-08-14T06:53:43.401Z,3.88
2023-08-14T06:56:13.354Z,2.80
2023-08-14T06:58:45.718Z,2.90
2023-08-14T07:01:15.589Z,2.60
2023-08-14T07:03:45.434Z,3.03
2023-08-14T07:06:15.468Z,2.80
2023-08-14T07:08:45.776Z,2.90
2023-08-14T07:11:15.514Z,2.70
2023-08-14T07:13:49.025Z,2.50
2023-08-14T07:16:18.916Z,3.60
2023-08-14T07:18:48.752Z,3.35
2023-08-14T07:21:18.519Z,2.70
2023-08-14T07:23:48.352Z,2.65
2023-08-14T07:26:18.176Z,2.83
2023-08-14T07:28:50.560Z,2.85
2023-08-14T07:31:20.313Z,3.70
2023-08-14T07:33:50.124Z,4.20
2023-08-14T07:36:19.900Z,2.67
2023-08-14T07:38:49.711Z,3.10
2023-08-14T07:41:19.513Z,2.75
2023-08-14T07:43:51.890Z,3.05
2023-08-14T07:46:21.663Z,2.35
2023-08-14T07:48:54.495Z,2.50
2023-08-14T07:51:24.868Z,2.70
2023-08-14T07:53:54.704Z,2.55
2023-08-14T07:56:24.483Z,2.40
2023-08-14T07:58:56.836Z,2.30
2023-08-14T08:01:26.681Z,2.67
2023-08-14T08:03:56.467Z,2.17
2023-08-14T08:06:26.941Z,2.55
2023-08-14T08:08:56.864Z,2.47
2023-08-14T08:11:26.622Z,2.85
2023-08-14T08:14:01.102Z,2.20
2023-08-14T08:16:31.875Z,2.20
2023-08-14T08:19:01.657Z,2.15
2023-08-14T08:21:31.421Z,2.10
2023-08-14T08:24:01.276Z,2.20
2023-08-14T08:26:31.056Z,2.28
2023-08-14T08:29:03.639Z,2.00
2023-08-14T08:34:03.185Z,2.08
2023-08-14T08:36:32.953Z,1.90
2023-08-14T08:39:02.678Z,1.95
2023-08-14T08:41:35.538Z,1.73
2023-08-14T08:44:10.167Z,2.08
2023-08-14T08:46:44.432Z,2.08
2023-08-14T08:49:14.878Z,1.95
2023-08-14T08:51:48.740Z,1.80
2023-08-14T08:54:19.377Z,1.98
2023-08-14T08:56:49.389Z,2.08
2023-08-14T08:59:22.772Z,2.05
2023-08-14T09:01:54.094Z,2.33
2023-08-14T09:04:25.342Z,2.20
2023-08-14T09:06:55.149Z,2.13
2023-08-14T09:09:25.781Z,1.83
2023-08-14T09:11:55.561Z,1.85
2023-08-14T09:14:28.415Z,1.98
2023-08-14T09:16:59.110Z,1.98
2023-08-14T09:19:28.997Z,1.73
2023-08-14T09:21:59.480Z,1.90
2023-08-14T09:24:29.323Z,1.98
2023-08-14T09:26:59.074Z,2.35
2023-08-14T09:29:34.132Z,1.98
2023-08-14T09:32:05.333Z,2.00
2023-08-14T09:34:35.144Z,2.40
2023-08-14T09:37:04.895Z,2.05
2023-08-14T09:39:34.651Z,1.88
2023-08-14T09:42:04.380Z,2.10
2023-08-14T09:44:36.703Z,2.20
2023-08-14T09:49:36.319Z,2.08
2023-08-14T09:52:07.851Z,2.10
2023-08-14T09:54:38.240Z,2.58
2023-08-14T09:57:08.822Z,2.38
2023-08-14T09:59:41.858Z,2.10
2023-08-14T10:04:43.040Z,2.10
2023-08-14T10:07:13.301Z,1.90
2023-08-14T10:09:44.142Z,2.33
2023-08-14T10:12:16.756Z,1.80
2023-08-14T10:14:52.146Z,2.17
2023-08-14T10:17:24.203Z,1.90
2023-08-14T10:19:56.304Z,1.80
2023-08-14T10:22:27.130Z,2.20
2023-08-14T10:24:57.380Z,2.20
2023-08-14T10:27:28.249Z,2.10
2023-08-14T10:30:01.913Z,1.95
2023-08-14T10:32:34.192Z,2.20
2023-08-14T10:35:04.452Z,2.10
2023-08-14T10:37:52.884Z,2.55
2023-08-14T10:40:28.144Z,2.55
2023-08-14T10:43:02.349Z,2.03
2023-08-14T10:45:35.428Z,2.50
2023-08-14T10:50:42.382Z,2.30
2023-08-14T10:53:15.008Z,2.08
2023-08-14T10:55:48.259Z,3.17
2023-08-14T10:58:40.119Z,2.38
2023-08-14T11:01:13.899Z,2.50
2023-08-14T11:04:02.294Z,2.25
2023-08-14T11:06:35.057Z,2.50
2023-08-14T11:09:07.641Z,2.20
2023-08-14T11:11:40.458Z,2.30
2023-08-14T11:14:10.838Z,2.65
2023-08-14T11:16:48.849Z,2.45
2023-08-14T11:19:23.708Z,2.60
2023-08-14T11:21:54.845Z,2.50
2023-08-14T11:24:25.476Z,2.20
2023-08-14T11:26:56.811Z,2.40
2023-08-14T11:29:34.265Z,3.15
2023-08-14T11:32:09.425Z,3.53
2023-08-14T11:34:40.461Z,2.22
2023-08-14T11:37:13.959Z,2.35
2023-08-14T11:39:45.448Z,3.30
2023-08-14T11:42:15.568Z,2.33
2023-08-14T11:44:46.028Z,2.47
2023-08-14T11:47:18.891Z,2.10
2023-08-14T11:49:49.595Z,2.40
2023-08-14T11:52:24.576Z,3.85
2023-08-14T11:54:54.738Z,2.85
2023-08-14T11:57:26.880Z,2.95
2023-08-14T11:59:57.907Z,3.00
2023-08-14T12:02:31.928Z,2.60
2023-08-14T12:05:04.982Z,2.67
2023-08-14T12:07:35.114Z,2.60
2023-08-14T12:10:10.716Z,2.75
2023-08-14T12:12:51.491Z,2.85
2023-08-14T12:15:29.900Z,2.40
2023-08-14T12:18:02.499Z,2.35
2023-08-14T12:20:35.405Z,2.85
2023-08-14T12:23:21.336Z,2.92
2023-08-14T12:25:53.292Z,2.83
2023-08-14T12:28:23.498Z,3.03
2023-08-14T12:30:53.482Z,3.30
2023-08-14T12:33:25.978Z,2.85
2023-08-14T12:35:55.972Z,2.93
2023-08-14T12:38:25.789Z,2.95
2023-08-14T12:40:55.679Z,2.80
2023-08-14T12:43:36.556Z,2.75
2023-08-14T12:46:10.636Z,2.40
2023-08-14T12:48:43.208Z,2.63
2023-08-14T12:51:12.976Z,2.90
2023-08-14T12:53:42.766Z,2.92
2023-08-14T12:56:18.133Z,2.80
2023-08-14T12:58:49.246Z,3.67
2023-08-14T13:01:24.126Z,2.70
2023-08-14T13:03:59.746Z,3.25
2023-08-14T13:06:30.948Z,2.97
2023-08-14T13:09:00.888Z,2.85
2023-08-14T13:11:31.267Z,2.60
2023-08-14T13:14:01.204Z,2.90
2023-08-14T13:16:30.992Z,2.90
2023-08-14T13:19:03.381Z,3.13
2023-08-14T13:21:33.142Z,2.90
2023-08-14T13:24:03.059Z,2.80
2023-08-14T13:26:35.754Z,2.80
2023-08-14T13:29:07.334Z,2.50
2023-08-14T13:31:37.108Z,2.60
2023-08-14T13:34:09.484Z,2.90
2023-08-14T13:36:39.264Z,3.03
2023-08-14T13:39:10.721Z,3.20
2023-08-14T13:41:40.467Z,2.90
2023-08-14T13:44:11.836Z,3.33
2023-08-14T13:46:42.282Z,2.53
2023-08-14T13:49:14.705Z,2.70
2023-08-14T13:51:46.013Z,2.85
2023-08-14T13:54:15.969Z,3.00
2023-08-14T13:56:45.709Z,2.97
2023-08-14T13:59:15.678Z,3.00
2023-08-14T14:01:48.148Z,3.30
2023-08-14T14:04:21.034Z,2.65
2023-08-14T14:06:50.943Z,2.70
2023-08-14T14:09:20.811Z,3.03
2023-08-14T14:11:50.657Z,2.83
2023-08-14T14:14:20.427Z,3.20
2023-08-14T14:16:54.268Z,2.78
2023-08-14T14:19:26.808Z,2.60
2023-08-14T14:21:56.582Z,2.70
2023-08-14T14:24:26.405Z,2.58
2023-08-14T14:26:56.356Z,2.85
2023-08-14T14:29:26.792Z,2.75
2023-08-14T14:31:57.042Z,2.60
2023-08-14T14:34:30.152Z,2.80
2023-08-14T14:37:00.055Z,2.72
2023-08-14T14:39:29.785Z,2.85
2023-08-14T14:41:59.553Z,2.80
2023-08-14T14:44:29.512Z,2.67
2023-08-14T14:46:59.241Z,2.60
2023-08-14T14:49:31.612Z,2.60
2023-08-14T14:52:03.952Z,2.70
2023-08-14T14:54:33.709Z,2.75
2023-08-14T14:57:03.466Z,2.42
2023-08-14T14:59:33.226Z,2.90
2023-08-14T15:02:09.242Z,2.70
2023-08-14T15:04:48.456Z,2.90
2023-08-14T15:07:18.450Z,2.70
2023-08-14T15:09:48.484Z,2.75
2023-08-14T15:12:18.245Z,3.70
2023-08-14T15:14:47.976Z,3.08
2023-08-14T15:17:17.979Z,2.67
2023-08-14T15:19:50.501Z,2.97
2023-08-14T15:22:20.291Z,2.78
2023-08-14T15:24:50.078Z,3.10
2023-08-14T15:27:20.131Z,2.70
2023-08-14T15:29:50.122Z,2.72
2023-08-14T15:32:19.898Z,3.28
2023-08-14T15:34:52.238Z,3.20
2023-08-14T15:37:22.105Z,2.70
2023-08-14T15:39:53.753Z,3.17
2023-08-14T15:42:23.505Z,2.90
2023-08-14T15:44:56.485Z,2.50
2023-08-14T15:47:26.423Z,3.10
2023-08-14T15:49:58.804Z,2.78
2023-08-14T15:52:32.202Z,3.08
2023-08-14T15:57:31.864Z,2.90
2023-08-14T16:00:04.010Z,2.90
2023-08-14T16:02:34.738Z,2.80
2023-08-14T16:05:07.584Z,2.80
2023-08-14T16:07:37.386Z,3.60
2023-08-14T16:10:07.928Z,2.70
2023-08-14T16:12:37.701Z,2.85
2023-08-14T16:15:10.194Z,2.78
2023-08-14T16:17:43.082Z,2.90
2023-08-14T16:20:16.198Z,3.05
2023-08-14T16:22:46.007Z,3.53
2023-08-14T16:25:15.837Z,3.25
2023-08-14T16:27:45.590Z,3.17
2023-08-14T16:30:15.506Z,2.97
2023-08-14T16:32:47.562Z,3.25
2023-08-14T16:35:20.234Z,3.17
2023-08-14T16:37:49.997Z,2.97
2023-08-14T16:40:19.996Z,3.33
2023-08-14T16:42:49.788Z,3.33
2023-08-14T16:45:19.578Z,3.20
2023-08-14T16:47:49.339Z,3.50
2023-08-14T16:50:21.932Z,3.03
2023-08-14T16:52:53.485Z,3.00
2023-08-14T16:55:23.245Z,3.10
2023-08-14T16:57:53.111Z,3.50
2023-08-14T17:00:23.220Z,3.90
2023-08-14T17:02:53.729Z,3.20
2023-08-14T17:05:26.357Z,3.53
2023-08-14T17:07:56.474Z,3.40
2023-08-14T17:10:26.224Z,3.17
2023-08-14T17:12:56.019Z,3.30
2023-08-14T17:15:25.789Z,3.58
2023-08-14T17:17:55.575Z,3.20
2023-08-14T17:20:28.011Z,3.10
2023-08-14T17:22:57.776Z,4.03
2023-08-14T17:25:27.549Z,3.15
2023-08-14T17:27:57.359Z,3.50
2023-08-14T17:30:27.232Z,3.22
2023-08-14T17:32:57.077Z,3.20
2023-08-14T17:35:29.497Z,3.20
2023-08-14T17:37:59.367Z,3.40
2023-08-14T17:40:30.732Z,3.47
2023-08-14T17:43:00.511Z,3.42
2023-08-14T17:45:30.307Z,3.53
2023-08-14T17:48:00.392Z,3.15
2023-08-14T17:50:34.258Z,3.40
2023-08-14T17:53:05.412Z,3.30
2023-08-14T17:55:35.247Z,3.42
2023-08-14T17:58:05.126Z,8.00
2023-08-14T18:00:35.309Z,5.38
2023-08-14T18:03:05.688Z,3.53
2023-08-14T18:05:38.604Z,3.70
2023-08-14T18:08:11.628Z,3.58
2023-08-14T18:10:41.621Z,3.85
2023-08-14T18:13:11.419Z,3.75
2023-08-14T18:15:41.953Z,4.00
2023-08-14T18:18:11.996Z,3.42
2023-08-14T18:20:44.480Z,3.67
2023-08-14T18:23:14.263Z,3.65
2023-08-14T18:25:44.008Z,3.70
2023-08-14T18:28:13.799Z,3.72
2023-08-14T18:30:45.402Z,3.50
2023-08-14T18:33:16.358Z,3.50
2023-08-14T18:35:50.112Z,3.50
2023-08-14T18:38:20.051Z,3.65
2023-08-14T18:40:50.224Z,3.50
2023-08-14T18:43:20.030Z,3.88
2023-08-14T18:45:50.006Z,3.65
2023-08-14T18:48:19.850Z,4.13
2023-08-14T18:50:52.250Z,3.63
2023-08-14T18:53:22.629Z,3.58
2023-08-14T18:55:52.625Z,3.58
2023-08-14T18:58:23.037Z,3.88
2023-08-14T19:00:52.895Z,3.85
2023-08-14T19:03:22.683Z,3.83
2023-08-14T19:05:59.652Z,3.63
2023-08-14T19:08:30.188Z,3.40
2023-08-14T19:11:00.374Z,3.70
2023-08-14T19:13:30.335Z,3.70
2023-08-14T19:16:00.622Z,4.10
2023-08-14T19:18:30.565Z,5.38
2023-08-14T19:21:03.472Z,4.05
2023-08-14T19:23:33.328Z,3.95
2023-08-14T19:26:14.969Z,3.47
2023-08-14T19:28:48.911Z,3.67
2023-08-14T19:31:18.762Z,3.97
2023-08-14T19:33:48.568Z,4.20
2023-08-14T19:36:21.279Z,3.97
2023-08-14T19:38:51.083Z,3.90
2023-08-14T19:41:21.135Z,3.80
2023-08-14T19:43:51.495Z,3.97
2023-08-14T19:46:21.590Z,3.80
2023-08-14T19:48:51.559Z,3.67
2023-08-14T19:51:24.115Z,3.78
2023-08-14T19:53:54.221Z,4.25
2023-08-14T19:56:24.023Z,4.00
2023-08-14T19:58:54.093Z,3.65
2023-08-14T20:01:24.232Z,4.25
2023-08-14T20:03:54.197Z,3.55
2023-08-14T20:06:26.929Z,4.00
2023-08-14T20:08:56.761Z,4.55
2023-08-14T20:11:26.648Z,3.83
2023-08-14T20:13:56.514Z,3.95
2023-08-14T20:16:26.346Z,4.20
2023-08-14T20:18:56.854Z,3.80
2023-08-14T20:21:29.518Z,4.32
2023-08-14T20:24:00.003Z,4.20
2023-08-14T20:26:29.885Z,4.40
2023-08-14T20:28:59.712Z,4.47
2023-08-14T20:31:29.499Z,4.22
2023-08-14T20:33:59.344Z,4.20
2023-08-14T20:36:33.915Z,4.38
2023-08-14T20:39:03.827Z,4.10
2023-08-14T20:41:36.524Z,4.45
2023-08-14T20:44:06.743Z,4.43
2023-08-14T20:46:36.594Z,4.28
2023-08-14T20:49:06.644Z,4.53
2023-08-14T20:51:39.151Z,4.30
2023-08-14T20:54:09.491Z,4.32
2023-08-14T20:56:39.252Z,4.60
2023-08-14T20:59:09.009Z,4.45
2023-08-14T21:01:38.834Z,4.63
2023-08-14T21:04:09.528Z,4.47
2023-08-14T21:06:41.983Z,4.88
2023-08-14T21:09:11.738Z,4.50
2023-08-14T21:11:41.553Z,5.20
2023-08-14T21:16:41.641Z,4.80
2023-08-14T21:19:12.914Z,4.38
2023-08-14T21:21:47.769Z,4.70
2023-08-14T21:24:17.609Z,4.40
2023-08-14T21:26:47.390Z,5.35
2023-08-14T21:29:17.258Z,4.72
2023-08-14T21:31:47.050Z,4.40
2023-08-14T21:34:17.398Z,5.65
2023-08-14T21:36:49.824Z,4.80
2023-08-14T21:39:20.453Z,4.28
2023-08-14T21:41:50.354Z,4.63
2023-08-14T21:44:22.510Z,4.50
2023-08-14T21:46:52.327Z,4.28
2023-08-14T21:49:22.560Z,4.30
2023-08-14T21:51:55.163Z,4.40
2023-08-14T21:54:24.993Z,4.07
2023-08-14T21:56:54.830Z,4.50
2023-08-14T21:59:24.652Z,4.43
2023-08-14T22:01:54.488Z,4.20
2023-08-14T22:04:24.569Z,4.40
2023-08-14T22:06:57.013Z,4.05
2023-08-14T22:09:28.491Z,4.22
2023-08-14T22:11:58.271Z,4.18
2023-08-14T22:14:28.035Z,4.40
2023-08-14T22:16:57.876Z,4.95
2023-08-14T22:19:27.794Z,5.07
2023-08-14T22:22:00.290Z,4.20
2023-08-14T22:24:40.282Z,4.80
2023-08-14T22:27:12.361Z,4.40
2023-08-14T22:29:42.257Z,4.20
2023-08-14T22:32:12.079Z,4.72
2023-08-14T22:34:42.103Z,4.00
2023-08-14T22:37:14.528Z,4.25
2023-08-14T22:39:44.361Z,4.05
2023-08-14T22:42:14.204Z,4.20
2023-08-14T22:44:43.961Z,4.65
2023-08-14T22:47:13.770Z,4.68
2023-08-14T22:49:43.706Z,4.43
2023-08-14T22:52:16.138Z,4.32
2023-08-14T22:54:46.090Z,4.63
2023-08-14T22:57:15.942Z,4.75
2023-08-14T22:59:45.949Z,4.57
2023-08-14T23:02:16.136Z,4.63
2023-08-14T23:04:45.919Z,4.60
2023-08-14T23:07:18.625Z,4.57
2023-08-14T23:09:48.577Z,4.90
2023-08-14T23:12:18.361Z,5.22
2023-08-14T23:14:48.404Z,4.80
2023-08-14T23:17:18.483Z,5.00
2023-08-14T23:19:48.674Z,4.75
2023-08-14T23:22:21.177Z,5.00
2023-08-14T23:24:51.177Z,5.40
2023-08-14T23:27:21.249Z,5.30
2023-08-14T23:29:52.541Z,5.20
2023-08-14T23:32:22.569Z,5.00
2023-08-14T23:34:53.366Z,4.65
2023-08-14T23:37:26.769Z,4.85
2023-08-14T23:39:56.571Z,5.15
2023-08-14T23:42:26.554Z,4.70
2023-08-14T23:44:56.322Z,5.05
2023-08-14T23:47:27.031Z,4.95
2023-08-14T23:49:56.781Z,5.22
2023-08-14T23:52:29.112Z,5.00
2023-08-14T23:54:58.884Z,4.90
2023-08-14T23:57:28.660Z,5.32
2023-08-14T23:59:58.493Z,5.35
